Topcliffe, United Kingdom
Current Conditions -  °F | °C
As of 12:50 AM on Tuesday 27 Jan 2015 (Local Time) from EGXZ Reporting Station
Clear Clear  
Wind Chill: 33°   Ceiling: Unl
Heat Index: 39°   Visibility: 6mi
Dew Point: 34°   Wind: 9mph
Humidity: 81%   Direction: 270°W
Pressure: 30.27"   Gusts: NA
Location:  54.2°N, 1.38°W
Report Text: EGXZ 270050Z AUTO 27008KT 9999 NCD 04/01 Q1025
Loading
Personal Weather Stations






























Interactive Weather Map New forecast layout! Learn more

10-Day Weather Forecast

Advertisements
Track Severe Weather on mobile